createdAt,value
2018-03-25T00:00:15.587Z,54.45
2018-03-25T00:01:15.599Z,53.97
2018-03-25T00:02:15.613Z,54.36
2018-03-25T00:03:15.343Z,53.88
2018-03-25T00:04:15.647Z,54.07
2018-03-25T00:05:15.653Z,54.07
2018-03-25T00:06:15.380Z,53.78
2018-03-25T00:07:15.676Z,54.26
2018-03-25T00:08:15.694Z,54.26
2018-03-25T00:09:15.418Z,54.17
2018-03-25T00:10:15.431Z,53.97
2018-03-25T00:11:15.728Z,54.45
2018-03-25T00:12:15.752Z,54.17
2018-03-25T00:13:15.758Z,54.17
2018-03-25T00:14:15.769Z,54.17
2018-03-25T00:15:15.778Z,54.17
2018-03-25T00:16:15.793Z,54.45
2018-03-25T00:17:15.812Z,54.45
2018-03-25T00:18:15.822Z,54.93
2018-03-25T00:19:15.547Z,54.45
2018-03-25T00:20:15.843Z,54.74
2018-03-25T00:21:15.572Z,54.64
2018-03-25T00:22:15.866Z,54.74
2018-03-25T00:23:15.884Z,54.74
2018-03-25T00:24:15.900Z,54.83
2018-03-25T00:25:15.904Z,54.71
2018-03-25T00:26:15.921Z,54.74
2018-03-25T00:27:15.647Z,54.83
2018-03-25T00:28:15.947Z,54.74
2018-03-25T00:29:15.958Z,54.74
2018-03-25T00:30:15.969Z,54.74
2018-03-25T00:31:15.988Z,54.83
2018-03-25T00:32:15.998Z,55.02
2018-03-25T00:33:16.079Z,54.9
2018-03-25T00:34:15.744Z,54.74
2018-03-25T00:35:16.045Z,54.71
2018-03-25T00:36:16.047Z,54.71
2018-03-25T00:37:16.056Z,54.55
2018-03-25T00:38:16.070Z,54.61
2018-03-25T00:39:15.800Z,54.26
2018-03-25T00:40:16.105Z,54.74
2018-03-25T00:41:15.827Z,54.74
2018-03-25T00:42:16.125Z,54.55
2018-03-25T00:43:16.135Z,54.52
2018-03-25T00:44:15.860Z,54.43
2018-03-25T00:45:16.159Z,54.71
2018-03-25T00:46:16.170Z,54.52
2018-03-25T00:47:15.905Z,55.09
2018-03-25T00:48:16.200Z,54.61
2018-03-25T00:49:16.207Z,54.71
2018-03-25T00:50:15.939Z,54.8
2018-03-25T00:51:16.236Z,54.9
2018-03-25T00:52:16.252Z,54.8
2018-03-25T00:53:16.260Z,54.8
2018-03-25T00:54:15.989Z,55.37
2018-03-25T00:55:16.286Z,54.99
2018-03-25T00:56:16.294Z,55.37
2018-03-25T00:57:16.318Z,54.8
2018-03-25T00:58:16.323Z,55.09
2018-03-25T00:59:16.336Z,55.37
2018-03-25T01:00:16.060Z,54.99
2018-03-25T01:01:16.363Z,55.37
2018-03-25T01:02:16.372Z,55.09
2018-03-25T01:03:16.384Z,55.28
2018-03-25T01:04:16.400Z,55.28
2018-03-25T01:05:16.409Z,55.18
2018-03-25T01:06:16.423Z,55.28
2018-03-25T01:07:16.150Z,55.09
2018-03-25T01:08:16.162Z,55.09
2018-03-25T01:09:16.463Z,54.9
2018-03-25T01:10:16.474Z,54.8
2018-03-25T01:11:16.483Z,55.18
2018-03-25T01:12:16.211Z,55.18
2018-03-25T01:13:16.505Z,55.18
2018-03-25T01:14:16.237Z,55.57
2018-03-25T01:15:16.533Z,55.09
2018-03-25T01:16:16.259Z,55.09
2018-03-25T01:17:16.554Z,55.28
2018-03-25T01:18:16.568Z,55.18
2018-03-25T01:19:16.296Z,55.18
2018-03-25T01:20:16.311Z,55.57
2018-03-25T01:21:16.608Z,55.47
2018-03-25T01:22:16.624Z,55.47
2018-03-25T01:23:16.630Z,55.37
2018-03-25T01:24:16.359Z,55.47
2018-03-25T01:25:16.652Z,55.47
2018-03-25T01:26:16.389Z,55.47
2018-03-25T01:27:16.396Z,55.37
2018-03-25T01:28:16.411Z,55.57
2018-03-25T01:29:16.706Z,55.57
2018-03-25T01:30:16.435Z,55.57
2018-03-25T01:31:16.726Z,55.76
2018-03-25T01:32:16.746Z,55.57
2018-03-25T01:33:16.749Z,55.85
2018-03-25T01:34:16.764Z,56.04
2018-03-25T01:35:16.492Z,55.76
2018-03-25T01:36:16.509Z,56.13
2018-03-25T01:37:16.516Z,55.66
2018-03-25T01:38:16.813Z,55.85
2018-03-25T01:39:16.824Z,55.76
2018-03-25T01:40:16.552Z,55.37
2018-03-25T01:41:16.848Z,55.57
2018-03-25T01:42:16.580Z,56.04
2018-03-25T01:43:16.884Z,56.04
2018-03-25T01:44:16.886Z,56.32
2018-03-25T01:45:16.895Z,56.32
2018-03-25T01:46:16.925Z,56.23
2018-03-25T01:47:16.639Z,56.04
2018-03-25T01:48:16.933Z,56.13
2018-03-25T01:49:16.661Z,56.04
2018-03-25T01:50:16.958Z,56.42
2018-03-25T01:51:16.686Z,56.13
2018-03-25T01:52:16.979Z,55.85
2018-03-25T01:53:16.998Z,56.32
2018-03-25T01:54:17.005Z,56.32
2018-03-25T01:55:17.024Z,56.42
2018-03-25T01:56:16.745Z,56.32
2018-03-25T01:57:17.040Z,56.32
2018-03-25T01:58:17.054Z,56.42
2018-03-25T01:59:17.064Z,56.42
2018-03-25T02:00:17.075Z,56.42
2018-03-25T02:01:17.095Z,56.32
2018-03-25T02:02:16.820Z,56.23
2018-03-25T02:03:17.113Z,56.32
2018-03-25T02:04:17.127Z,56.23
2018-03-25T02:05:16.857Z,56.13
2018-03-25T02:06:17.151Z,56.23
2018-03-25T02:07:17.162Z,56.23
2018-03-25T02:08:16.893Z,56.23
2018-03-25T02:09:17.185Z,56.13
2018-03-25T02:10:17.199Z,56.23
2018-03-25T02:11:16.929Z,56.13
2018-03-25T02:12:17.274Z,56.29
2018-03-25T02:13:16.951Z,56.1
2018-03-25T02:14:17.249Z,56.87
2018-03-25T02:15:17.267Z,56.1
2018-03-25T02:16:16.985Z,56.77
2018-03-25T02:17:17.330Z,56.49
2018-03-25T02:18:17.357Z,56.13
2018-03-25T02:19:17.305Z,56.2
2018-03-25T02:20:17.036Z,56.51
2018-03-25T02:21:17.329Z,56.32
2018-03-25T02:22:17.062Z,56.29
2018-03-25T02:23:17.355Z,56.29
2018-03-25T02:24:17.082Z,56.61
2018-03-25T02:25:17.117Z,56.39
2018-03-25T02:26:17.388Z,56.49
2018-03-25T02:27:17.402Z,56.49
2018-03-25T02:28:17.419Z,56.58
2018-03-25T02:29:17.423Z,56.49
2018-03-25T02:30:17.439Z,56.58
2018-03-25T02:31:17.450Z,56.58
2018-03-25T02:32:17.513Z,56.49
2018-03-25T02:33:17.490Z,56.77
2018-03-25T02:34:17.203Z,56.39
2018-03-25T02:35:17.214Z,56.77
2018-03-25T02:36:17.514Z,56.68
2018-03-25T02:37:17.573Z,56.49
2018-03-25T02:38:17.252Z,56.68
2018-03-25T02:39:17.548Z,56.68
2018-03-25T02:40:17.560Z,56.39
2018-03-25T02:41:17.574Z,56.39
2018-03-25T02:42:17.650Z,56.58
2018-03-25T02:43:17.306Z,56.49
2018-03-25T02:44:17.604Z,56.49
2018-03-25T02:45:17.618Z,56.58
2018-03-25T02:46:17.633Z,56.68
2018-03-25T02:47:17.645Z,56.68
2018-03-25T02:48:17.660Z,56.77
2018-03-25T02:49:17.380Z,56.87
2018-03-25T02:50:17.678Z,56.77
2018-03-25T02:51:17.406Z,56.77
2018-03-25T02:52:17.755Z,56.87
2018-03-25T02:53:17.712Z,56.96
2018-03-25T02:54:17.728Z,56.58
2018-03-25T02:55:17.735Z,56.77
2018-03-25T02:56:17.748Z,56.58
2018-03-25T02:57:17.813Z,56.77
2018-03-25T02:58:17.492Z,56.77
2018-03-25T02:59:17.784Z,56.58
2018-03-25T03:00:17.790Z,56.77
2018-03-25T03:01:17.814Z,56.87
2018-03-25T03:02:17.823Z,57.06
2018-03-25T03:03:17.842Z,56.87
2018-03-25T03:04:17.844Z,57.06
2018-03-25T03:05:17.569Z,56.96
2018-03-25T03:06:17.876Z,56.96
2018-03-25T03:07:17.878Z,57.06
2018-03-25T03:08:17.605Z,57.06
2018-03-25T03:09:17.899Z,56.77
2018-03-25T03:10:17.908Z,56.77
2018-03-25T03:11:17.638Z,56.77
2018-03-25T03:12:17.702Z,56.87
2018-03-25T03:13:17.941Z,56.68
2018-03-25T03:14:17.674Z,56.77
2018-03-25T03:15:17.973Z,56.68
2018-03-25T03:16:17.695Z,56.87
2018-03-25T03:17:17.991Z,56.96
2018-03-25T03:18:17.718Z,57.24
2018-03-25T03:19:18.012Z,56.87
2018-03-25T03:20:17.743Z,57.15
2018-03-25T03:21:18.038Z,57.15
2018-03-25T03:22:17.766Z,57.24
2018-03-25T03:23:18.078Z,57.24
2018-03-25T03:24:18.081Z,57.24
2018-03-25T03:25:18.087Z,57.34
2018-03-25T03:26:18.101Z,57.34
2018-03-25T03:27:18.121Z,57.24
2018-03-25T03:28:17.835Z,57.34
2018-03-25T03:29:18.135Z,57.53
2018-03-25T03:30:17.858Z,57.34
2018-03-25T03:31:17.869Z,57.34
2018-03-25T03:32:18.164Z,57.24
2018-03-25T03:33:18.178Z,57.15
2018-03-25T03:34:18.203Z,57.53
2018-03-25T03:35:17.918Z,57.24
2018-03-25T03:36:17.930Z,57.15
2018-03-25T03:37:18.220Z,57.15
2018-03-25T03:38:17.955Z,57.62
2018-03-25T03:39:18.257Z,57.34
2018-03-25T03:40:17.975Z,57.34
2018-03-25T03:41:17.989Z,57.62
2018-03-25T03:42:18.282Z,57.43
2018-03-25T03:43:18.295Z,57.43
2018-03-25T03:44:18.305Z,57.43
2018-03-25T03:45:18.318Z,57.43
2018-03-25T03:46:18.043Z,57.34
2018-03-25T03:47:18.339Z,57.62
2018-03-25T03:48:18.351Z,57.62
2018-03-25T03:49:18.364Z,57.81
2018-03-25T03:50:18.375Z,57.53
2018-03-25T03:51:18.388Z,57.72
2018-03-25T03:52:18.396Z,57.81
2018-03-25T03:53:18.410Z,57.72
2018-03-25T03:54:18.427Z,57.53
2018-03-25T03:55:18.431Z,57.62
2018-03-25T03:56:18.443Z,57.53
2018-03-25T03:57:18.453Z,57.34
2018-03-25T03:58:18.182Z,57.24
2018-03-25T03:59:18.477Z,57.53
2018-03-25T04:00:18.489Z,57.53
2018-03-25T04:01:18.501Z,57.43
2018-03-25T04:02:18.509Z,57.43
2018-03-25T04:03:18.520Z,57.34
2018-03-25T04:04:18.591Z,57.62
2018-03-25T04:05:18.545Z,57.62
2018-03-25T04:06:18.274Z,57.53
2018-03-25T04:07:18.287Z,57.53
2018-03-25T04:08:18.298Z,57.62
2018-03-25T04:09:18.589Z,57.72
2018-03-25T04:10:18.602Z,57.43
2018-03-25T04:11:18.615Z,57.62
2018-03-25T04:12:18.624Z,57.43
2018-03-25T04:13:18.636Z,57.62
2018-03-25T04:14:18.652Z,57.34
2018-03-25T04:15:18.666Z,57.34
2018-03-25T04:16:18.679Z,57.72
2018-03-25T04:17:18.399Z,57.72
2018-03-25T04:18:18.411Z,57.91
2018-03-25T04:19:18.710Z,57.72
2018-03-25T04:20:18.725Z,57.62
2018-03-25T04:21:18.445Z,57.53
2018-03-25T04:22:18.741Z,57.91
2018-03-25T04:23:18.471Z,57.81
2018-03-25T04:24:18.784Z,58
2018-03-25T04:25:18.777Z,58.1
2018-03-25T04:26:18.505Z,58.1
2018-03-25T04:27:18.800Z,57.91
2018-03-25T04:28:18.809Z,57.91
2018-03-25T04:29:18.819Z,57.91
2018-03-25T04:30:18.837Z,57.91
2018-03-25T04:31:18.840Z,57.81
2018-03-25T04:32:18.583Z,57.81
2018-03-25T04:33:18.583Z,58.1
2018-03-25T04:34:18.881Z,57.72
2018-03-25T04:35:18.894Z,57.72
2018-03-25T04:36:18.902Z,57.72
2018-03-25T04:37:18.916Z,57.72
2018-03-25T04:38:18.639Z,57.62
2018-03-25T04:39:18.934Z,58
2018-03-25T04:40:18.944Z,58.39
2018-03-25T04:41:18.958Z,58.45
2018-03-25T04:42:18.971Z,58.48
2018-03-25T04:43:18.978Z,58.26
2018-03-25T04:44:18.990Z,58.36
2018-03-25T04:45:19.009Z,58.39
2018-03-25T04:46:19.017Z,58.36
2018-03-25T04:47:19.035Z,58.26
2018-03-25T04:48:18.751Z,58.26
2018-03-25T04:49:19.047Z,58.17
2018-03-25T04:50:19.058Z,58.26
2018-03-25T04:51:19.070Z,57.88
2018-03-25T04:52:19.083Z,58.26
2018-03-25T04:53:19.144Z,58.07
2018-03-25T04:54:18.822Z,58.17
2018-03-25T04:55:19.117Z,58.45
2018-03-25T04:56:19.132Z,58.29
2018-03-25T04:57:19.134Z,58.64
2018-03-25T04:58:19.156Z,58.73
2018-03-25T04:59:19.165Z,58.64
2018-03-25T05:00:18.891Z,58.54
2018-03-25T05:01:19.186Z,58.64
2018-03-25T05:02:19.193Z,58.54
2018-03-25T05:03:19.260Z,58.45
2018-03-25T05:04:19.217Z,58.54
2018-03-25T05:05:18.945Z,58.54
2018-03-25T05:06:19.244Z,58.54
2018-03-25T05:07:19.251Z,58.73
2018-03-25T05:08:19.261Z,58.54
2018-03-25T05:09:18.990Z,58.54
2018-03-25T05:10:19.005Z,58.73
2018-03-25T05:11:19.297Z,58.64
2018-03-25T05:12:19.311Z,58.64
2018-03-25T05:13:19.092Z,58.36
2018-03-25T05:14:19.330Z,58.64
2018-03-25T05:15:19.343Z,58.54
2018-03-25T05:16:19.071Z,58.73
2018-03-25T05:17:19.364Z,58.54
2018-03-25T05:18:19.094Z,58.64
2018-03-25T05:19:19.102Z,58.45
2018-03-25T05:20:19.397Z,58.64
2018-03-25T05:21:19.411Z,58.45
2018-03-25T05:22:19.420Z,58.45
2018-03-25T05:23:19.436Z,58.45
2018-03-25T05:24:19.158Z,58.45
2018-03-25T05:25:19.455Z,58.64
2018-03-25T05:26:19.463Z,58.64
2018-03-25T05:27:19.473Z,58.83
2018-03-25T05:28:19.487Z,58.83
2018-03-25T05:29:19.216Z,58.64
2018-03-25T05:30:19.225Z,58.83
2018-03-25T05:31:19.533Z,58.64
2018-03-25T05:32:19.250Z,58.83
2018-03-25T05:33:19.545Z,58.54
2018-03-25T05:34:19.513Z,58.64
2018-03-25T05:35:19.611Z,58.73
2018-03-25T05:36:19.586Z,59.11
2018-03-25T05:37:19.590Z,59.02
2018-03-25T05:38:19.314Z,59.21
2018-03-25T05:39:19.327Z,59.21
2018-03-25T05:40:19.343Z,58.92
2018-03-25T05:41:19.635Z,59.21
2018-03-25T05:42:19.642Z,58.92
2018-03-25T05:43:19.370Z,58.83
2018-03-25T05:44:19.666Z,58.83
2018-03-25T05:45:19.690Z,58.92
2018-03-25T05:46:19.690Z,58.92
2018-03-25T05:47:19.774Z,58.92
2018-03-25T05:48:19.429Z,59.11
2018-03-25T05:49:19.725Z,58.64
2018-03-25T05:50:19.735Z,58.83
2018-03-25T05:51:19.746Z,59.02
2018-03-25T05:52:19.760Z,59.02
2018-03-25T05:53:19.768Z,59.3
2018-03-25T05:54:19.495Z,59.4
2018-03-25T05:55:19.586Z,59.21
2018-03-25T05:56:19.803Z,59.21
2018-03-25T05:57:19.824Z,59.11
2018-03-25T05:58:19.832Z,59.02
2018-03-25T05:59:19.834Z,59.11
2018-03-25T06:00:19.842Z,59.11
2018-03-25T06:01:19.938Z,59.11
2018-03-25T06:02:19.868Z,59.21
2018-03-25T06:03:19.926Z,59.3
2018-03-25T06:04:19.605Z,59.3
2018-03-25T06:05:19.617Z,59.4
2018-03-25T06:06:19.629Z,59.78
2018-03-25T06:07:19.924Z,59.49
2018-03-25T06:08:19.934Z,59.4
2018-03-25T06:09:19.953Z,59.4
2018-03-25T06:10:19.955Z,59.21
2018-03-25T06:11:19.972Z,59.4
2018-03-25T06:12:19.982Z,59.3
2018-03-25T06:13:19.706Z,59.78
2018-03-25T06:14:19.717Z,59.78
2018-03-25T06:15:20.033Z,59.71
2018-03-25T06:16:19.743Z,59.59
2018-03-25T06:17:19.751Z,59.62
2018-03-25T06:18:19.773Z,59.62
2018-03-25T06:19:20.067Z,59.62
2018-03-25T06:20:20.068Z,59.62
2018-03-25T06:21:20.081Z,59.52
2018-03-25T06:22:20.162Z,59.62
2018-03-25T06:23:20.124Z,59.81
2018-03-25T06:24:20.115Z,59.71
2018-03-25T06:25:20.131Z,59.62
2018-03-25T06:26:20.137Z,59.62
2018-03-25T06:27:20.148Z,59.62
2018-03-25T06:28:19.876Z,59.71
2018-03-25T06:29:20.170Z,59.62
2018-03-25T06:30:19.900Z,59.62
2018-03-25T06:31:19.909Z,59.52
2018-03-25T06:32:20.205Z,59.52
2018-03-25T06:33:20.214Z,59.91
2018-03-25T06:34:20.227Z,59.43
2018-03-25T06:35:19.953Z,59.43
2018-03-25T06:36:19.963Z,59.71
2018-03-25T06:37:20.257Z,59.81
2018-03-25T06:38:20.270Z,59.71
2018-03-25T06:39:20.336Z,59.24
2018-03-25T06:40:20.013Z,59.14
2018-03-25T06:41:20.021Z,59.05
2018-03-25T06:42:20.316Z,59.05
2018-03-25T06:43:20.324Z,59.24
2018-03-25T06:44:20.386Z,59.24
2018-03-25T06:45:20.351Z,59.24
2018-03-25T06:46:20.358Z,59.33
2018-03-25T06:47:20.369Z,58.86
2018-03-25T06:48:20.384Z,58.86
2018-03-25T06:49:20.110Z,59.33
2018-03-25T06:50:20.405Z,59.33
2018-03-25T06:51:20.417Z,59.05
2018-03-25T06:52:20.426Z,59.33
2018-03-25T06:53:20.448Z,59.33
2018-03-25T06:54:20.458Z,58.86
2018-03-25T06:55:20.460Z,59.14
2018-03-25T06:56:20.472Z,59.43
2018-03-25T06:57:20.482Z,58.86
2018-03-25T06:58:20.210Z,58.86
2018-03-25T06:59:20.509Z,58.76
2018-03-25T07:00:20.235Z,58.76
2018-03-25T07:01:20.530Z,58.76
2018-03-25T07:02:20.257Z,58.76
2018-03-25T07:03:20.549Z,58.76
2018-03-25T07:04:20.612Z,58.89
2018-03-25T07:05:20.580Z,58.86
2018-03-25T07:06:20.586Z,59.05
2018-03-25T07:07:20.604Z,58.7
2018-03-25T07:08:20.611Z,58.51
2018-03-25T07:09:20.619Z,58.51
2018-03-25T07:10:20.348Z,58.89
2018-03-25T07:11:20.645Z,58.51
2018-03-25T07:12:20.373Z,58.8
2018-03-25T07:13:20.675Z,58.89
2018-03-25T07:14:20.677Z,58.8
2018-03-25T07:15:20.684Z,59.27
2018-03-25T07:16:20.696Z,58.98
2018-03-25T07:17:20.725Z,58.61
2018-03-25T07:18:20.723Z,58.61
2018-03-25T07:19:20.509Z,58.61
2018-03-25T07:20:20.743Z,58.51
2018-03-25T07:21:20.758Z,58.7
2018-03-25T07:22:20.487Z,58.61
2018-03-25T07:23:20.501Z,58.89
2018-03-25T07:24:20.793Z,58.8
2018-03-25T07:25:20.526Z,58.89
2018-03-25T07:26:20.824Z,58.51
2018-03-25T07:27:20.833Z,58.41
2018-03-25T07:28:20.553Z,58.22
2018-03-25T07:29:20.854Z,58.13
2018-03-25T07:30:20.863Z,58.25
2018-03-25T07:31:20.871Z,58.32
2018-03-25T07:32:20.882Z,58.35
2018-03-25T07:33:20.894Z,58.44
2018-03-25T07:34:20.657Z,58.06
2018-03-25T07:35:20.638Z,57.68
2018-03-25T07:36:20.647Z,57.87
2018-03-25T07:37:20.958Z,57.78
2018-03-25T07:38:20.950Z,57.5
2018-03-25T07:39:20.969Z,57.68
2018-03-25T07:40:20.974Z,57.4
2018-03-25T07:41:20.710Z,57.59
2018-03-25T07:42:20.999Z,57.4
2018-03-25T07:43:21.009Z,57.68
2018-03-25T07:44:20.740Z,57.68
2018-03-25T07:45:21.038Z,57.5
2018-03-25T07:46:21.052Z,57.5
2018-03-25T07:47:21.260Z,57.3
2018-03-25T07:48:21.073Z,57.21
2018-03-25T07:49:20.797Z,56.83
2018-03-25T07:50:21.100Z,56.92
2018-03-25T07:51:21.112Z,56.92
2018-03-25T07:52:21.122Z,56.83
2018-03-25T07:53:21.128Z,56.63
2018-03-25T07:54:21.148Z,56.63
2018-03-25T07:55:20.868Z,56.73
2018-03-25T07:56:21.165Z,56.85
2018-03-25T07:57:21.179Z,57.11
2018-03-25T07:58:21.187Z,56.73
2018-03-25T07:59:20.917Z,56.85
2018-03-25T08:00:20.928Z,56.76
2018-03-25T08:01:20.943Z,56.57
2018-03-25T08:02:20.954Z,56.67
2018-03-25T08:03:20.964Z,56.57
2018-03-25T08:04:21.264Z,56.48
2018-03-25T08:05:21.273Z,56.67
2018-03-25T08:06:21.282Z,56.67
2018-03-25T08:07:21.297Z,56.57
2018-03-25T08:08:21.314Z,56.67
2018-03-25T08:09:21.316Z,56.85
2018-03-25T08:10:21.334Z,56.48
2018-03-25T08:11:21.346Z,56.85
2018-03-25T08:12:21.087Z,56.85
2018-03-25T08:13:21.372Z,56.76
2018-03-25T08:14:21.391Z,56.48
2018-03-25T08:15:21.399Z,56.67
2018-03-25T08:16:21.120Z,56.51
2018-03-25T08:17:21.425Z,56.51
2018-03-25T08:18:21.425Z,56.7
2018-03-25T08:19:21.438Z,56.51
2018-03-25T08:20:21.468Z,56.6
2018-03-25T08:21:21.465Z,56.31
2018-03-25T08:22:21.472Z,56.31
2018-03-25T08:23:21.490Z,56.31
2018-03-25T08:24:21.220Z,56.6
2018-03-25T08:25:21.233Z,56.22
2018-03-25T08:26:21.242Z,56.41
2018-03-25T08:27:21.543Z,56.41
2018-03-25T08:28:21.549Z,56.79
2018-03-25T08:29:21.575Z,55.65
2018-03-25T08:30:21.342Z,55.68
2018-03-25T08:31:21.587Z,55.68
2018-03-25T08:32:21.322Z,55.68
2018-03-25T08:33:21.607Z,55.87
2018-03-25T08:34:21.625Z,55.39
2018-03-25T08:35:21.685Z,55.77
2018-03-25T08:36:21.368Z,55.96
2018-03-25T08:37:21.387Z,55.87
2018-03-25T08:38:21.671Z,55.1
2018-03-25T08:39:21.690Z,55.29
2018-03-25T08:40:21.417Z,54.72
2018-03-25T08:41:21.710Z,55.2
2018-03-25T08:42:21.439Z,55.29
2018-03-25T08:43:21.736Z,55.2
2018-03-25T08:44:21.464Z,55.29
2018-03-25T08:45:21.812Z,55.29
2018-03-25T08:46:21.772Z,54.94
2018-03-25T08:47:21.505Z,54.56
2018-03-25T08:48:21.803Z,54.75
2018-03-25T08:49:21.857Z,54.85
2018-03-25T08:50:21.824Z,55.42
2018-03-25T08:51:21.843Z,55.32
2018-03-25T08:52:21.853Z,54.66
2018-03-25T08:53:21.865Z,54.94
2018-03-25T08:54:21.873Z,55.32
2018-03-25T08:55:21.607Z,54.75
2018-03-25T08:56:21.619Z,54.75
2018-03-25T08:57:21.918Z,53.89
2018-03-25T08:58:21.930Z,54.11
2018-03-25T08:59:21.660Z,53.54
2018-03-25T09:00:21.956Z,54.02
2018-03-25T09:01:21.968Z,53.54
2018-03-25T09:02:21.986Z,53.73
2018-03-25T09:03:21.713Z,53.64
2018-03-25T09:04:21.724Z,54.21
2018-03-25T09:05:22.019Z,53.25
2018-03-25T09:06:22.036Z,53.44
2018-03-25T09:07:22.047Z,54.11
2018-03-25T09:08:22.058Z,53.54
2018-03-25T09:09:22.118Z,53.83
2018-03-25T09:10:22.086Z,53.54
2018-03-25T09:11:22.103Z,53.16
2018-03-25T09:12:22.114Z,53.16
2018-03-25T09:13:22.124Z,52.8
2018-03-25T09:14:22.137Z,52.71
2018-03-25T09:15:21.871Z,52.33
2018-03-25T09:16:22.168Z,52.52
2018-03-25T09:17:22.178Z,53.19
2018-03-25T09:18:22.190Z,52.61
2018-03-25T09:19:22.209Z,52.9
2018-03-25T09:20:22.230Z,52.8
2018-03-25T09:21:22.233Z,52.9
2018-03-25T09:22:22.253Z,52.71
2018-03-25T09:23:22.260Z,52.55
2018-03-25T09:24:21.993Z,52.45
2018-03-25T09:25:22.296Z,52.45
2018-03-25T09:26:22.015Z,52.26
2018-03-25T09:27:22.032Z,51.97
2018-03-25T09:28:22.326Z,52.07
2018-03-25T09:29:22.338Z,51.68
2018-03-25T09:30:22.509Z,51.5
2018-03-25T09:31:22.380Z,51.5
2018-03-25T09:32:22.381Z,51.4
2018-03-25T09:33:22.396Z,51.4
2018-03-25T09:34:22.410Z,51.59
2018-03-25T09:35:22.139Z,51.4
2018-03-25T09:36:22.154Z,50.83
2018-03-25T09:37:22.480Z,50.95
2018-03-25T09:38:22.182Z,51.23
2018-03-25T09:39:22.196Z,50.83
2018-03-25T09:40:22.210Z,51.14
2018-03-25T09:41:22.224Z,50.85
2018-03-25T09:42:22.518Z,51.04
2018-03-25T09:43:22.251Z,51.04
2018-03-25T09:44:22.552Z,50.95
2018-03-25T09:45:22.567Z,50.76
2018-03-25T09:46:22.577Z,50.85
2018-03-25T09:47:22.593Z,50.28
2018-03-25T09:48:22.612Z,50.47
2018-03-25T09:49:22.622Z,50.09
2018-03-25T09:50:22.656Z,50.18
2018-03-25T09:51:22.648Z,49.8
2018-03-25T09:52:22.379Z,50.49
2018-03-25T09:53:22.392Z,49.83
2018-03-25T09:54:22.691Z,50.59
2018-03-25T09:55:22.753Z,50.4
2018-03-25T09:56:22.720Z,50.4
2018-03-25T09:57:22.733Z,50.12
2018-03-25T09:58:22.469Z,50.02
2018-03-25T09:59:22.764Z,50.12
2018-03-25T10:00:22.780Z,50.21
2018-03-25T10:01:22.801Z,49.85
2018-03-25T10:02:22.526Z,49.85
2018-03-25T10:03:22.692Z,50.04
2018-03-25T10:04:22.841Z,49.47
2018-03-25T10:05:22.852Z,49.18
2018-03-25T10:06:22.865Z,48.61
2018-03-25T10:07:22.603Z,48.8
2018-03-25T10:08:22.901Z,48.04
2018-03-25T10:09:22.629Z,48.33
2018-03-25T10:10:22.643Z,48.04
2018-03-25T10:11:22.962Z,48.13
2018-03-25T10:12:22.959Z,47.75
2018-03-25T10:13:22.970Z,47.85
2018-03-25T10:14:22.984Z,47.01
2018-03-25T10:15:22.721Z,47.49
2018-03-25T10:16:23.029Z,47.39
2018-03-25T10:17:23.031Z,47.2
2018-03-25T10:18:23.047Z,47.58
2018-03-25T10:19:23.066Z,47.87
2018-03-25T10:20:23.081Z,47.97
2018-03-25T10:21:23.092Z,47.97
2018-03-25T10:22:23.116Z,47.78
2018-03-25T10:23:22.838Z,47.87
2018-03-25T10:24:23.141Z,47.97
2018-03-25T10:25:22.880Z,47.58
2018-03-25T10:26:23.170Z,47.49
2018-03-25T10:27:23.184Z,47.39
2018-03-25T10:28:23.202Z,47.39
2018-03-25T10:29:23.221Z,47.03
2018-03-25T10:30:22.951Z,46.75
2018-03-25T10:31:23.244Z,45.7
2018-03-25T10:32:23.269Z,45.6
2018-03-25T10:33:23.276Z,45.41
2018-03-25T10:34:23.011Z,45.41
2018-03-25T10:35:23.512Z,45.51
2018-03-25T10:36:23.323Z,45.51
2018-03-25T10:37:23.343Z,45.51
2018-03-25T10:38:23.366Z,45.41
2018-03-25T10:39:23.089Z,45.41
2018-03-25T10:40:23.388Z,45.41
2018-03-25T10:41:23.119Z,45.22
2018-03-25T10:42:23.137Z,45.12
2018-03-25T10:43:23.152Z,45.03
2018-03-25T10:44:23.166Z,44.55
2018-03-25T10:45:23.467Z,44.84
2018-03-25T10:46:23.495Z,44.84
2018-03-25T10:47:23.496Z,44.74
2018-03-25T10:48:23.232Z,44.65
2018-03-25T10:49:23.537Z,44.65
2018-03-25T10:50:23.550Z,44.65
2018-03-25T10:51:23.564Z,44.29
2018-03-25T10:52:23.576Z,44.38
2018-03-25T10:53:23.604Z,44.38
2018-03-25T10:54:23.610Z,44.29
2018-03-25T10:55:23.351Z,44.57
2018-03-25T10:56:23.648Z,44.48
2018-03-25T10:57:23.668Z,44.48
2018-03-25T10:58:23.676Z,44.29
2018-03-25T10:59:23.410Z,44.09
2018-03-25T11:00:23.708Z,44.38
2018-03-25T11:01:23.726Z,44.38
2018-03-25T11:02:23.460Z,44.19
2018-03-25T11:03:23.475Z,44.31
2018-03-25T11:04:23.773Z,44.21
2018-03-25T11:05:23.795Z,44.31
2018-03-25T11:06:23.805Z,44.12
2018-03-25T11:07:23.831Z,43.92
2018-03-25T11:08:23.844Z,42.97
2018-03-25T11:09:23.572Z,42.87
2018-03-25T11:10:23.590Z,42.68
2018-03-25T11:11:23.604Z,42.49
2018-03-25T11:12:23.627Z,42.01
2018-03-25T11:13:23.640Z,42.3
2018-03-25T11:14:23.938Z,41.91
2018-03-25T11:15:23.956Z,42.2
2018-03-25T11:16:23.696Z,42.49
2018-03-25T11:17:24.094Z,42.11
2018-03-25T11:18:24.009Z,42.2
2018-03-25T11:19:23.742Z,42.7
2018-03-25T11:20:24.043Z,42.6
2018-03-25T11:21:24.108Z,42.7
2018-03-25T11:22:24.074Z,42.9
2018-03-25T11:23:24.097Z,42.7
2018-03-25T11:24:23.828Z,43.27
2018-03-25T11:25:24.131Z,42.7
2018-03-25T11:26:24.142Z,43.18
2018-03-25T11:27:24.169Z,43.18
2018-03-25T11:28:24.177Z,42.63
2018-03-25T11:29:24.191Z,42.32
2018-03-25T11:30:23.933Z,42.44
2018-03-25T11:31:23.945Z,42.63
2018-03-25T11:32:23.964Z,42.24
2018-03-25T11:33:24.261Z,41.96
2018-03-25T11:34:24.278Z,42.14
2018-03-25T11:35:24.012Z,42.34
2018-03-25T11:36:24.317Z,42.34
2018-03-25T11:37:24.048Z,42.14
2018-03-25T11:38:24.346Z,41.96
2018-03-25T11:39:24.371Z,42.34
2018-03-25T11:40:24.382Z,41.96
2018-03-25T11:41:24.116Z,42.05
2018-03-25T11:42:24.420Z,41.78
2018-03-25T11:43:24.151Z,41.69
2018-03-25T11:44:24.176Z,41.69
2018-03-25T11:45:24.472Z,41.5
2018-03-25T11:46:24.488Z,41.5
2018-03-25T11:47:24.224Z,41.6
2018-03-25T11:48:24.521Z,41.4
2018-03-25T11:49:24.257Z,41.31
2018-03-25T11:50:24.555Z,41.5
2018-03-25T11:51:24.586Z,41.02
2018-03-25T11:52:24.595Z,41.02
2018-03-25T11:53:24.613Z,41.11
2018-03-25T11:54:24.629Z,40.73
2018-03-25T11:55:24.645Z,40.25
2018-03-25T11:56:24.663Z,40.54
2018-03-25T11:57:24.401Z,40.25
2018-03-25T11:58:24.703Z,40.73
2018-03-25T11:59:24.725Z,40.54
2018-03-25T12:00:24.452Z,40.37
2018-03-25T12:01:24.469Z,40.27
2018-03-25T12:02:24.773Z,39.89
2018-03-25T12:03:24.792Z,39.68
2018-03-25T12:04:24.525Z,39.41
2018-03-25T12:05:24.540Z,39.79
2018-03-25T12:06:24.853Z,40.17
2018-03-25T12:07:24.865Z,39.98
2018-03-25T12:08:24.890Z,39.89
2018-03-25T12:09:24.900Z,39.7
2018-03-25T12:10:24.927Z,39.79
2018-03-25T12:11:24.939Z,40.27
2018-03-25T12:12:24.670Z,40.08
2018-03-25T12:13:24.688Z,40.17
2018-03-25T12:14:24.735Z,40.27
2018-03-25T12:15:25.037Z,40.17
2018-03-25T12:16:24.809Z,40.08
2018-03-25T12:17:25.046Z,39.5
2018-03-25T12:18:25.071Z,39.7
2018-03-25T12:19:25.082Z,39.43
2018-03-25T12:20:25.151Z,39.31
2018-03-25T12:21:25.118Z,39.03
2018-03-25T12:22:25.135Z,39.04
2018-03-25T12:23:25.162Z,39.33
2018-03-25T12:24:25.174Z,39.23
2018-03-25T12:25:24.909Z,39.04
2018-03-25T12:26:24.927Z,38.56
2018-03-25T12:27:24.946Z,38.66
2018-03-25T12:28:25.246Z,38.76
2018-03-25T12:29:24.984Z,38.95
2018-03-25T12:30:25.283Z,38.66
2018-03-25T12:31:25.303Z,38.66
2018-03-25T12:32:25.321Z,38.76
2018-03-25T12:33:25.058Z,38.47
2018-03-25T12:34:25.368Z,38.66
2018-03-25T12:35:25.382Z,38.56
2018-03-25T12:36:25.397Z,38.76
2018-03-25T12:37:25.417Z,38.76
2018-03-25T12:38:25.441Z,39.23
2018-03-25T12:39:25.484Z,39.14
2018-03-25T12:40:25.190Z,39.23
2018-03-25T12:41:25.208Z,39.14
2018-03-25T12:42:25.234Z,38.96
2018-03-25T12:43:25.527Z,38.96
2018-03-25T12:44:25.270Z,39.26
2018-03-25T12:45:25.580Z,39.06
2018-03-25T12:46:25.302Z,39.06
2018-03-25T12:47:25.603Z,39.04
2018-03-25T12:48:25.624Z,39.16
2018-03-25T12:49:25.647Z,39.45
2018-03-25T12:50:25.665Z,39.35
2018-03-25T12:51:25.394Z,38.87
2018-03-25T12:52:25.701Z,39.26
2018-03-25T12:53:25.726Z,38.78
2018-03-25T12:54:25.736Z,38.68
2018-03-25T12:55:25.754Z,38.29